Página principal
METAR-TAF:

METAR-TAF

Aeroportos :

Aeródromo Municipal de Cascais (Tires)

Cascais, Portugal

latitude: 38-43-32N, longitude: 009-21-19W, altura: 99 m

Observação actual do tempo

O boletim foi feito há 20 minutos, às 07:30 UTC
Vento 15 kt de norte
Temperatura 16°C
Humidade 72%
Pressão 1021 hPa
Visibilidade 10 km ou mais
Poucas nuvensa uma altura de 1800 ft

METAR: LPCS 250730Z 36015KT 9999 FEW018 16/11 Q1021

Hora: 08:50 (07:50 UTC)

Previsão

O boletim foi feito há 1 hora e 20 minutos, às 06:30 UTC
Previsão válida de 25 às 06 UTC a 25 às 15 UTC
Vento 13 kt de norte
Visibilidade 10 km ou mais
Poucas nuvensa uma altura de 2000 ft
Tornando-se
de 25 às 12 UTC a 25 às 14 UTC
Vento 18 kt de norte

TAF: LPCS 250630Z 2506/2515 35013KT 9999 FEW020 BECMG 2512/2514 35018KT

Observações e previsões do tempo de mais de 4000 aeroportos (mensagens METAR e TAF).

As estações disponíveis são os pontos amarelos e vermelhos sobre o mapa.

Mova o rato sobre o mapa para ver o nome da estação.

Depois clique no ponto para visualizar as observações e previsões meteorológicas.

Para alterar o mapa : clique nos botões verdes com uma cruz preta para aumentar o zoom; no botão verde com uma pitada de zoom; ou nas setas verdes para mapas adjacentes.


METAR-TAF: